sensor_id;sensor_type;location;lat;lon;timestamp;P1;durP1;ratioP1;P2;durP2;ratioP2
53714;SDS011;39608;55.630;37.864;2023-04-06T00:03:43;5.75;;;2.80;;
53714;SDS011;39608;55.630;37.864;2023-04-06T00:08:45;4.72;;;2.70;;
53714;SDS011;39608;55.630;37.864;2023-04-06T00:13:47;3.70;;;2.80;;
53714;SDS011;39608;55.630;37.864;2023-04-06T00:18:50;4.15;;;2.95;;
53714;SDS011;39608;55.630;37.864;2023-04-06T00:23:52;3.88;;;2.78;;
53714;SDS011;39608;55.630;37.864;2023-04-06T00:28:54;6.07;;;2.92;;
53714;SDS011;39608;55.630;37.864;2023-04-06T00:33:58;3.88;;;2.42;;
53714;SDS011;39608;55.630;37.864;2023-04-06T00:39:00;7.32;;;2.80;;
53714;SDS011;39608;55.630;37.864;2023-04-06T00:44:02;6.40;;;2.70;;
53714;SDS011;39608;55.630;37.864;2023-04-06T00:49:05;8.13;;;2.60;;
53714;SDS011;39608;55.630;37.864;2023-04-06T00:54:07;9.13;;;3.08;;
53714;SDS011;39608;55.630;37.864;2023-04-06T00:59:10;4.65;;;2.45;;
53714;SDS011;39608;55.630;37.864;2023-04-06T01:04:13;3.40;;;2.80;;
53714;SDS011;39608;55.630;37.864;2023-04-06T01:09:16;4.85;;;3.17;;
53714;SDS011;39608;55.630;37.864;2023-04-06T01:14:18;3.88;;;3.13;;
53714;SDS011;39608;55.630;37.864;2023-04-06T01:19:22;4.63;;;3.33;;
53714;SDS011;39608;55.630;37.864;2023-04-06T01:24:25;5.80;;;3.22;;
53714;SDS011;39608;55.630;37.864;2023-04-06T01:29:27;4.95;;;3.13;;
53714;SDS011;39608;55.630;37.864;2023-04-06T01:34:29;7.00;;;3.47;;
53714;SDS011;39608;55.630;37.864;2023-04-06T01:39:33;5.28;;;3.20;;
53714;SDS011;39608;55.630;37.864;2023-04-06T01:44:35;6.53;;;3.50;;
53714;SDS011;39608;55.630;37.864;2023-04-06T01:49:37;4.30;;;3.40;;
53714;SDS011;39608;55.630;37.864;2023-04-06T01:54:41;4.38;;;3.10;;
53714;SDS011;39608;55.630;37.864;2023-04-06T01:59:43;4.20;;;3.20;;
53714;SDS011;39608;55.630;37.864;2023-04-06T02:04:45;3.70;;;3.08;;
53714;SDS011;39608;55.630;37.864;2023-04-06T02:09:48;4.25;;;2.88;;
53714;SDS011;39608;55.630;37.864;2023-04-06T02:14:52;4.38;;;3.13;;
53714;SDS011;39608;55.630;37.864;2023-04-06T02:19:54;5.30;;;3.53;;
53714;SDS011;39608;55.630;37.864;2023-04-06T02:24:58;4.82;;;3.45;;
53714;SDS011;39608;55.630;37.864;2023-04-06T02:30:00;5.20;;;3.05;;
53714;SDS011;39608;55.630;37.864;2023-04-06T02:35:03;5.07;;;2.75;;
53714;SDS011;39608;55.630;37.864;2023-04-06T02:40:10;7.13;;;3.38;;
53714;SDS011;39608;55.630;37.864;2023-04-06T02:45:13;7.20;;;3.05;;
53714;SDS011;39608;55.630;37.864;2023-04-06T02:50:15;4.10;;;3.05;;
53714;SDS011;39608;55.630;37.864;2023-04-06T02:55:19;5.20;;;3.28;;
53714;SDS011;39608;55.630;37.864;2023-04-06T03:00:21;5.43;;;3.42;;
53714;SDS011;39608;55.630;37.864;2023-04-06T03:05:23;4.95;;;3.20;;
53714;SDS011;39608;55.630;37.864;2023-04-06T03:10:27;4.22;;;3.63;;
53714;SDS011;39608;55.630;37.864;2023-04-06T03:15:29;9.73;;;3.22;;
53714;SDS011;39608;55.630;37.864;2023-04-06T03:20:31;3.70;;;2.47;;
53714;SDS011;39608;55.630;37.864;2023-04-06T03:25:34;3.90;;;2.90;;
53714;SDS011;39608;55.630;37.864;2023-04-06T03:30:36;3.83;;;2.97;;
53714;SDS011;39608;55.630;37.864;2023-04-06T03:35:38;4.72;;;2.55;;
53714;SDS011;39608;55.630;37.864;2023-04-06T03:40:42;5.32;;;2.88;;
53714;SDS011;39608;55.630;37.864;2023-04-06T03:45:45;4.05;;;2.40;;
53714;SDS011;39608;55.630;37.864;2023-04-06T03:50:47;3.35;;;2.78;;
53714;SDS011;39608;55.630;37.864;2023-04-06T03:55:51;4.15;;;2.53;;
53714;SDS011;39608;55.630;37.864;2023-04-06T04:00:53;6.25;;;2.63;;
53714;SDS011;39608;55.630;37.864;2023-04-06T04:05:55;6.35;;;2.90;;
53714;SDS011;39608;55.630;37.864;2023-04-06T04:10:58;4.75;;;2.58;;
53714;SDS011;39608;55.630;37.864;2023-04-06T04:16:00;3.85;;;2.63;;
53714;SDS011;39608;55.630;37.864;2023-04-06T04:21:03;3.08;;;2.22;;
53714;SDS011;39608;55.630;37.864;2023-04-06T04:26:06;4.95;;;2.40;;
53714;SDS011;39608;55.630;37.864;2023-04-06T04:31:08;7.63;;;2.92;;
53714;SDS011;39608;55.630;37.864;2023-04-06T04:36:11;3.05;;;2.10;;
53714;SDS011;39608;55.630;37.864;2023-04-06T04:41:14;6.32;;;2.35;;
53714;SDS011;39608;55.630;37.864;2023-04-06T04:46:16;3.33;;;2.53;;
53714;SDS011;39608;55.630;37.864;2023-04-06T04:51:18;3.63;;;2.45;;
53714;SDS011;39608;55.630;37.864;2023-04-06T04:56:22;3.53;;;2.50;;
53714;SDS011;39608;55.630;37.864;2023-04-06T05:01:24;4.32;;;2.13;;
53714;SDS011;39608;55.630;37.864;2023-04-06T05:06:26;4.05;;;2.38;;
53714;SDS011;39608;55.630;37.864;2023-04-06T05:11:30;6.10;;;2.25;;
53714;SDS011;39608;55.630;37.864;2023-04-06T05:16:32;4.22;;;2.58;;
53714;SDS011;39608;55.630;37.864;2023-04-06T05:21:35;3.92;;;2.53;;
53714;SDS011;39608;55.630;37.864;2023-04-06T05:26:41;5.70;;;4.03;;
53714;SDS011;39608;55.630;37.864;2023-04-06T05:31:43;9.73;;;2.63;;
53714;SDS011;39608;55.630;37.864;2023-04-06T05:36:45;5.32;;;2.42;;
53714;SDS011;39608;55.630;37.864;2023-04-06T05:41:49;6.25;;;2.42;;
53714;SDS011;39608;55.630;37.864;2023-04-06T05:46:51;5.88;;;3.13;;
53714;SDS011;39608;55.630;37.864;2023-04-06T05:51:54;10.07;;;2.80;;
53714;SDS011;39608;55.630;37.864;2023-04-06T05:56:58;3.03;;;2.38;;
53714;SDS011;39608;55.630;37.864;2023-04-06T06:02:00;5.03;;;2.60;;
53714;SDS011;39608;55.630;37.864;2023-04-06T06:07:02;8.30;;;3.25;;
53714;SDS011;39608;55.630;37.864;2023-04-06T06:12:07;9.05;;;3.15;;
53714;SDS011;39608;55.630;37.864;2023-04-06T06:17:09;19.52;;;4.10;;
53714;SDS011;39608;55.630;37.864;2023-04-06T06:22:11;19.48;;;3.65;;
53714;SDS011;39608;55.630;37.864;2023-04-06T06:27:14;8.98;;;3.25;;
53714;SDS011;39608;55.630;37.864;2023-04-06T06:32:17;11.23;;;3.58;;
53714;SDS011;39608;55.630;37.864;2023-04-06T06:37:20;8.98;;;3.40;;
53714;SDS011;39608;55.630;37.864;2023-04-06T06:42:23;10.68;;;3.25;;
53714;SDS011;39608;55.630;37.864;2023-04-06T06:47:26;8.77;;;3.50;;
53714;SDS011;39608;55.630;37.864;2023-04-06T06:52:28;5.35;;;3.15;;
53714;SDS011;39608;55.630;37.864;2023-04-06T06:57:31;20.65;;;3.60;;
53714;SDS011;39608;55.630;37.864;2023-04-06T07:02:34;3.95;;;2.90;;
53714;SDS011;39608;55.630;37.864;2023-04-06T07:07:37;7.63;;;2.58;;
53714;SDS011;39608;55.630;37.864;2023-04-06T07:12:40;14.88;;;2.97;;
53714;SDS011;39608;55.630;37.864;2023-04-06T07:17:42;4.15;;;2.53;;
53714;SDS011;39608;55.630;37.864;2023-04-06T07:22:45;14.05;;;2.58;;
53714;SDS011;39608;55.630;37.864;2023-04-06T07:27:49;12.85;;;3.08;;
53714;SDS011;39608;55.630;37.864;2023-04-06T07:32:51;6.13;;;3.08;;
53714;SDS011;39608;55.630;37.864;2023-04-06T07:37:55;7.90;;;2.42;;
53714;SDS011;39608;55.630;37.864;2023-04-06T07:42:59;10.68;;;2.50;;
53714;SDS011;39608;55.630;37.864;2023-04-06T07:48:02;18.05;;;3.03;;
53714;SDS011;39608;55.630;37.864;2023-04-06T07:53:08;6.65;;;2.50;;
53714;SDS011;39608;55.630;37.864;2023-04-06T07:58:12;21.83;;;2.90;;
53714;SDS011;39608;55.630;37.864;2023-04-06T08:03:14;5.13;;;2.42;;
53714;SDS011;39608;55.630;37.864;2023-04-06T08:08:16;9.60;;;2.75;;
53714;SDS011;39608;55.630;37.864;2023-04-06T08:13:20;13.48;;;3.08;;
53714;SDS011;39608;55.630;37.864;2023-04-06T08:18:22;8.85;;;3.15;;
53714;SDS011;39608;55.630;37.864;2023-04-06T08:23:24;10.63;;;3.25;;
53714;SDS011;39608;55.630;37.864;2023-04-06T08:28:28;4.88;;;1.90;;
53714;SDS011;39608;55.630;37.864;2023-04-06T08:33:30;5.00;;;2.40;;
53714;SDS011;39608;55.630;37.864;2023-04-06T08:38:35;4.75;;;2.40;;
53714;SDS011;39608;55.630;37.864;2023-04-06T08:43:41;6.88;;;2.20;;
53714;SDS011;39608;55.630;37.864;2023-04-06T08:48:45;7.90;;;2.60;;
53714;SDS011;39608;55.630;37.864;2023-04-06T08:53:50;10.32;;;2.53;;
53714;SDS011;39608;55.630;37.864;2023-04-06T08:58:56;13.90;;;2.95;;
53714;SDS011;39608;55.630;37.864;2023-04-06T09:03:58;4.03;;;1.92;;
53714;SDS011;39608;55.630;37.864;2023-04-06T09:09:01;10.77;;;2.20;;
53714;SDS011;39608;55.630;37.864;2023-04-06T09:14:05;9.15;;;2.53;;
53714;SDS011;39608;55.630;37.864;2023-04-06T09:19:07;4.82;;;2.00;;
53714;SDS011;39608;55.630;37.864;2023-04-06T09:24:09;10.35;;;2.58;;
53714;SDS011;39608;55.630;37.864;2023-04-06T09:29:21;9.88;;;2.10;;
53714;SDS011;39608;55.630;37.864;2023-04-06T09:34:24;13.90;;;2.58;;
53714;SDS011;39608;55.630;37.864;2023-04-06T09:39:26;8.85;;;2.08;;
53714;SDS011;39608;55.630;37.864;2023-04-06T09:44:29;10.52;;;2.28;;
53714;SDS011;39608;55.630;37.864;2023-04-06T09:49:32;5.13;;;2.05;;
53714;SDS011;39608;55.630;37.864;2023-04-06T09:54:35;7.32;;;2.22;;
53714;SDS011;39608;55.630;37.864;2023-04-06T09:59:42;5.72;;;2.47;;
53714;SDS011;39608;55.630;37.864;2023-04-06T10:04:49;18.67;;;2.83;;
53714;SDS011;39608;55.630;37.864;2023-04-06T10:09:58;7.25;;;2.33;;
53714;SDS011;39608;55.630;37.864;2023-04-06T10:15:05;10.23;;;2.15;;
53714;SDS011;39608;55.630;37.864;2023-04-06T10:20:10;25.40;;;2.58;;
53714;SDS011;39608;55.630;37.864;2023-04-06T10:25:16;10.05;;;2.40;;
53714;SDS011;39608;55.630;37.864;2023-04-06T10:30:20;17.73;;;2.13;;
53714;SDS011;39608;55.630;37.864;2023-04-06T10:35:22;17.48;;;2.15;;
53714;SDS011;39608;55.630;37.864;2023-04-06T10:40:25;4.60;;;1.90;;
53714;SDS011;39608;55.630;37.864;2023-04-06T10:45:30;12.05;;;1.67;;
53714;SDS011;39608;55.630;37.864;2023-04-06T10:50:33;18.60;;;2.40;;
53714;SDS011;39608;55.630;37.864;2023-04-06T10:55:38;5.97;;;1.98;;
53714;SDS011;39608;55.630;37.864;2023-04-06T11:00:44;10.98;;;2.00;;
53714;SDS011;39608;55.630;37.864;2023-04-06T11:05:47;7.07;;;1.60;;
53714;SDS011;39608;55.630;37.864;2023-04-06T11:10:51;10.98;;;1.98;;
53714;SDS011;39608;55.630;37.864;2023-04-06T11:15:54;17.80;;;2.00;;
53714;SDS011;39608;55.630;37.864;2023-04-06T11:20:56;19.15;;;2.35;;
53714;SDS011;39608;55.630;37.864;2023-04-06T11:25:59;10.88;;;1.80;;
53714;SDS011;39608;55.630;37.864;2023-04-06T11:31:02;11.30;;;1.80;;
53714;SDS011;39608;55.630;37.864;2023-04-06T11:36:04;8.98;;;1.80;;
53714;SDS011;39608;55.630;37.864;2023-04-06T11:41:07;16.08;;;2.08;;
53714;SDS011;39608;55.630;37.864;2023-04-06T11:46:11;8.48;;;2.00;;
53714;SDS011;39608;55.630;37.864;2023-04-06T11:51:22;11.15;;;1.60;;
53714;SDS011;39608;55.630;37.864;2023-04-06T11:56:25;10.48;;;1.83;;
53714;SDS011;39608;55.630;37.864;2023-04-06T12:01:29;25.88;;;2.70;;
53714;SDS011;39608;55.630;37.864;2023-04-06T12:06:31;16.52;;;1.65;;
53714;SDS011;39608;55.630;37.864;2023-04-06T12:11:34;11.43;;;1.92;;
53714;SDS011;39608;55.630;37.864;2023-04-06T12:16:40;26.98;;;3.05;;
53714;SDS011;39608;55.630;37.864;2023-04-06T12:21:42;3.45;;;1.50;;
53714;SDS011;39608;55.630;37.864;2023-04-06T12:26:45;4.43;;;1.67;;
53714;SDS011;39608;55.630;37.864;2023-04-06T12:31:50;24.70;;;2.10;;
53714;SDS011;39608;55.630;37.864;2023-04-06T12:36:53;9.45;;;1.38;;
53714;SDS011;39608;55.630;37.864;2023-04-06T12:41:56;7.70;;;1.75;;
53714;SDS011;39608;55.630;37.864;2023-04-06T12:46:59;12.20;;;2.00;;
53714;SDS011;39608;55.630;37.864;2023-04-06T12:52:04;15.80;;;2.33;;
53714;SDS011;39608;55.630;37.864;2023-04-06T12:57:06;5.85;;;1.40;;
53714;SDS011;39608;55.630;37.864;2023-04-06T13:02:09;9.32;;;1.77;;
53714;SDS011;39608;55.630;37.864;2023-04-06T13:07:11;8.38;;;1.70;;
53714;SDS011;39608;55.630;37.864;2023-04-06T13:12:14;11.30;;;1.40;;
53714;SDS011;39608;55.630;37.864;2023-04-06T13:17:18;8.27;;;2.30;;
53714;SDS011;39608;55.630;37.864;2023-04-06T13:22:21;6.82;;;1.77;;
53714;SDS011;39608;55.630;37.864;2023-04-06T13:27:23;3.83;;;1.50;;
53714;SDS011;39608;55.630;37.864;2023-04-06T13:32:27;8.73;;;1.50;;
53714;SDS011;39608;55.630;37.864;2023-04-06T13:37:29;13.40;;;1.80;;
53714;SDS011;39608;55.630;37.864;2023-04-06T13:42:31;4.47;;;1.30;;
53714;SDS011;39608;55.630;37.864;2023-04-06T13:47:36;3.90;;;1.80;;
53714;SDS011;39608;55.630;37.864;2023-04-06T13:52:38;5.63;;;1.40;;
53714;SDS011;39608;55.630;37.864;2023-04-06T13:57:40;7.43;;;1.63;;
53714;SDS011;39608;55.630;37.864;2023-04-06T14:02:44;7.28;;;1.33;;
53714;SDS011;39608;55.630;37.864;2023-04-06T14:07:46;9.82;;;1.63;;
53714;SDS011;39608;55.630;37.864;2023-04-06T14:12:49;12.38;;;1.50;;
53714;SDS011;39608;55.630;37.864;2023-04-06T14:17:52;17.27;;;1.90;;
53714;SDS011;39608;55.630;37.864;2023-04-06T14:22:55;39.90;;;2.58;;
53714;SDS011;39608;55.630;37.864;2023-04-06T14:27:57;17.98;;;1.58;;
53714;SDS011;39608;55.630;37.864;2023-04-06T14:33:01;12.35;;;1.40;;
53714;SDS011;39608;55.630;37.864;2023-04-06T14:38:03;3.75;;;1.00;;
53714;SDS011;39608;55.630;37.864;2023-04-06T14:43:05;8.32;;;1.23;;
53714;SDS011;39608;55.630;37.864;2023-04-06T14:48:09;12.30;;;1.35;;
53714;SDS011;39608;55.630;37.864;2023-04-06T14:53:12;5.20;;;1.92;;
53714;SDS011;39608;55.630;37.864;2023-04-06T14:58:14;5.07;;;1.10;;
53714;SDS011;39608;55.630;37.864;2023-04-06T15:03:17;15.93;;;1.52;;
53714;SDS011;39608;55.630;37.864;2023-04-06T15:08:19;9.70;;;1.30;;
53714;SDS011;39608;55.630;37.864;2023-04-06T15:13:22;5.47;;;1.40;;
53714;SDS011;39608;55.630;37.864;2023-04-06T15:18:25;5.75;;;1.23;;
53714;SDS011;39608;55.630;37.864;2023-04-06T15:23:30;4.88;;;1.10;;
53714;SDS011;39608;55.630;37.864;2023-04-06T15:28:37;13.30;;;1.70;;
53714;SDS011;39608;55.630;37.864;2023-04-06T15:33:41;13.32;;;1.83;;
53714;SDS011;39608;55.630;37.864;2023-04-06T15:38:44;10.05;;;1.20;;
53714;SDS011;39608;55.630;37.864;2023-04-06T15:43:46;6.53;;;1.40;;
53714;SDS011;39608;55.630;37.864;2023-04-06T15:48:50;7.97;;;2.00;;
53714;SDS011;39608;55.630;37.864;2023-04-06T15:53:52;7.80;;;1.65;;
53714;SDS011;39608;55.630;37.864;2023-04-06T15:58:54;46.28;;;3.78;;
53714;SDS011;39608;55.630;37.864;2023-04-06T16:03:58;9.93;;;2.10;;
53714;SDS011;39608;55.630;37.864;2023-04-06T16:09:00;13.38;;;2.05;;
53714;SDS011;39608;55.630;37.864;2023-04-06T16:14:02;10.52;;;1.80;;
53714;SDS011;39608;55.630;37.864;2023-04-06T16:19:05;8.20;;;1.60;;
53714;SDS011;39608;55.630;37.864;2023-04-06T16:24:07;10.20;;;1.77;;
53714;SDS011;39608;55.630;37.864;2023-04-06T16:29:10;8.70;;;1.45;;
53714;SDS011;39608;55.630;37.864;2023-04-06T16:34:13;7.82;;;1.73;;
53714;SDS011;39608;55.630;37.864;2023-04-06T16:39:16;12.50;;;1.83;;
53714;SDS011;39608;55.630;37.864;2023-04-06T16:44:18;10.38;;;2.15;;
53714;SDS011;39608;55.630;37.864;2023-04-06T16:49:22;6.93;;;1.92;;
53714;SDS011;39608;55.630;37.864;2023-04-06T16:54:24;7.30;;;1.67;;
53714;SDS011;39608;55.630;37.864;2023-04-06T16:59:26;4.85;;;1.63;;
53714;SDS011;39608;55.630;37.864;2023-04-06T17:04:29;9.35;;;1.50;;
53714;SDS011;39608;55.630;37.864;2023-04-06T17:09:31;5.72;;;1.83;;
53714;SDS011;39608;55.630;37.864;2023-04-06T17:14:36;3.45;;;1.75;;
53714;SDS011;39608;55.630;37.864;2023-04-06T17:19:41;5.22;;;1.70;;
53714;SDS011;39608;55.630;37.864;2023-04-06T17:24:43;11.50;;;2.30;;
53714;SDS011;39608;55.630;37.864;2023-04-06T17:29:45;5.82;;;2.25;;
53714;SDS011;39608;55.630;37.864;2023-04-06T17:34:48;6.28;;;1.95;;
53714;SDS011;39608;55.630;37.864;2023-04-06T17:39:50;4.05;;;2.15;;
53714;SDS011;39608;55.630;37.864;2023-04-06T17:44:52;6.25;;;2.33;;
53714;SDS011;39608;55.630;37.864;2023-04-06T17:49:56;7.43;;;2.50;;
53714;SDS011;39608;55.630;37.864;2023-04-06T17:54:58;10.27;;;2.35;;
53714;SDS011;39608;55.630;37.864;2023-04-06T18:00:00;11.88;;;2.08;;
53714;SDS011;39608;55.630;37.864;2023-04-06T18:05:06;3.10;;;1.75;;
53714;SDS011;39608;55.630;37.864;2023-04-06T18:10:08;9.40;;;1.92;;
53714;SDS011;39608;55.630;37.864;2023-04-06T18:15:13;10.60;;;2.13;;
53714;SDS011;39608;55.630;37.864;2023-04-06T18:20:17;4.30;;;1.75;;
53714;SDS011;39608;55.630;37.864;2023-04-06T18:25:19;9.82;;;2.28;;
53714;SDS011;39608;55.630;37.864;2023-04-06T18:30:22;4.30;;;1.90;;
53714;SDS011;39608;55.630;37.864;2023-04-06T18:35:26;14.38;;;1.75;;
53714;SDS011;39608;55.630;37.864;2023-04-06T18:40:32;3.60;;;2.00;;
53714;SDS011;39608;55.630;37.864;2023-04-06T18:45:36;5.95;;;1.92;;
53714;SDS011;39608;55.630;37.864;2023-04-06T18:50:40;7.25;;;1.80;;
53714;SDS011;39608;55.630;37.864;2023-04-06T18:56:01;8.40;;;1.70;;
53714;SDS011;39608;55.630;37.864;2023-04-06T19:01:03;17.73;;;1.92;;
53714;SDS011;39608;55.630;37.864;2023-04-06T19:06:07;7.50;;;1.48;;
53714;SDS011;39608;55.630;37.864;2023-04-06T19:11:09;9.45;;;1.85;;
53714;SDS011;39608;55.630;37.864;2023-04-06T19:16:11;2.13;;;1.48;;
53714;SDS011;39608;55.630;37.864;2023-04-06T19:21:15;5.10;;;1.60;;
53714;SDS011;39608;55.630;37.864;2023-04-06T19:26:18;8.07;;;1.73;;
53714;SDS011;39608;55.630;37.864;2023-04-06T19:31:21;2.40;;;1.20;;
53714;SDS011;39608;55.630;37.864;2023-04-06T19:36:24;3.58;;;1.77;;
53714;SDS011;39608;55.630;37.864;2023-04-06T19:49:16;6.32;;;1.50;;
53714;SDS011;39608;55.630;37.864;2023-04-06T19:54:46;2.10;;;1.25;;
53714;SDS011;39608;55.630;37.864;2023-04-06T20:32:53;7.28;;;1.60;;
53714;SDS011;39608;55.630;37.864;2023-04-06T20:44:21;6.43;;;1.83;;
53714;SDS011;39608;55.630;37.864;2023-04-06T20:49:26;6.32;;;1.95;;
53714;SDS011;39608;55.630;37.864;2023-04-06T20:54:29;3.35;;;1.45;;
53714;SDS011;39608;55.630;37.864;2023-04-06T20:59:31;2.83;;;1.30;;
53714;SDS011;39608;55.630;37.864;2023-04-06T21:04:34;3.17;;;1.52;;
53714;SDS011;39608;55.630;37.864;2023-04-06T21:09:37;3.55;;;1.48;;
53714;SDS011;39608;55.630;37.864;2023-04-06T21:14:40;2.33;;;1.40;;
53714;SDS011;39608;55.630;37.864;2023-04-06T21:19:43;3.20;;;1.58;;
53714;SDS011;39608;55.630;37.864;2023-04-06T21:24:45;2.47;;;1.50;;
53714;SDS011;39608;55.630;37.864;2023-04-06T21:29:48;4.68;;;1.55;;
53714;SDS011;39608;55.630;37.864;2023-04-06T21:34:51;5.03;;;1.60;;
53714;SDS011;39608;55.630;37.864;2023-04-06T21:39:53;3.45;;;1.48;;
53714;SDS011;39608;55.630;37.864;2023-04-06T21:44:56;7.82;;;1.65;;
53714;SDS011;39608;55.630;37.864;2023-04-06T21:50:00;5.78;;;1.58;;
53714;SDS011;39608;55.630;37.864;2023-04-06T21:55:03;4.05;;;1.13;;
53714;SDS011;39608;55.630;37.864;2023-04-06T22:00:06;2.05;;;1.23;;
53714;SDS011;39608;55.630;37.864;2023-04-06T22:05:11;8.45;;;1.33;;
53714;SDS011;39608;55.630;37.864;2023-04-06T22:10:15;7.05;;;1.40;;
53714;SDS011;39608;55.630;37.864;2023-04-06T22:15:17;4.25;;;1.40;;
53714;SDS011;39608;55.630;37.864;2023-04-06T22:20:20;4.78;;;1.65;;
53714;SDS011;39608;55.630;37.864;2023-04-06T22:25:22;4.10;;;1.20;;
53714;SDS011;39608;55.630;37.864;2023-04-06T22:30:24;3.58;;;0.90;;
53714;SDS011;39608;55.630;37.864;2023-04-06T22:35:27;4.75;;;1.90;;
53714;SDS011;39608;55.630;37.864;2023-04-06T22:40:30;2.30;;;1.17;;
53714;SDS011;39608;55.630;37.864;2023-04-06T22:45:32;4.60;;;1.33;;
53714;SDS011;39608;55.630;37.864;2023-04-06T22:50:35;4.32;;;1.33;;
53714;SDS011;39608;55.630;37.864;2023-04-06T22:55:37;8.65;;;1.73;;
53714;SDS011;39608;55.630;37.864;2023-04-06T23:00:40;3.67;;;1.80;;
53714;SDS011;39608;55.630;37.864;2023-04-06T23:05:43;3.15;;;1.38;;
53714;SDS011;39608;55.630;37.864;2023-04-06T23:10:46;3.03;;;1.38;;
53714;SDS011;39608;55.630;37.864;2023-04-06T23:15:50;1.20;;;1.00;;
53714;SDS011;39608;55.630;37.864;2023-04-06T23:20:53;2.25;;;1.30;;
53714;SDS011;39608;55.630;37.864;2023-04-06T23:25:55;4.50;;;1.63;;
53714;SDS011;39608;55.630;37.864;2023-04-06T23:30:57;3.15;;;1.38;;
53714;SDS011;39608;55.630;37.864;2023-04-06T23:36:01;3.33;;;1.63;;
53714;SDS011;39608;55.630;37.864;2023-04-06T23:41:03;4.40;;;1.20;;
53714;SDS011;39608;55.630;37.864;2023-04-06T23:46:05;3.40;;;1.35;;
53714;SDS011;39608;55.630;37.864;2023-04-06T23:51:08;6.15;;;1.45;;
53714;SDS011;39608;55.630;37.864;2023-04-06T23:56:10;2.53;;;1.63;;
